Time;durP1;ratioP1;P1;durP2;ratioP2;P2;SDS_P1;SDS_P2;PMS_P1;PMS_P2;Temp;Humidity;BMP_temperature;BMP_pressure;BME280_temperature;BME280_humidity;BME280_pressure;Samples;Min_cycle;Max_cycle;Signal;HPM_P1;HPM_P2
2021/04/02 00:01:56;;;;;;;1.80;1.70;;;14.20;79.60;;;;;;5007415;28;20539;-66
2021/04/02 00:04:22;;;;;;;6.27;1.90;;;14.10;79.10;;;;;;5026820;28;20221;-65
2021/04/02 00:06:47;;;;;;;2.73;1.70;;;14.20;79.40;;;;;;5006465;28;20236;-66
2021/04/02 00:09:13;;;;;;;4.63;2.43;;;14.20;79.30;;;;;;4994081;28;20228;-65
2021/04/02 00:11:41;;;;;;;2.10;1.53;;;14.20;78.80;;;;;;4982881;28;20218;-67
2021/04/02 00:14:08;;;;;;;4.60;4.30;;;14.20;78.20;;;;;;5003876;28;20228;-66
2021/04/02 00:16:34;;;;;;;5.93;2.63;;;14.20;76.70;;;;;;5011139;28;20463;-66
2021/04/02 00:19:00;;;;;;;2.73;2.20;;;14.20;76.10;;;;;;5015764;28;20508;-65
2021/04/02 00:21:25;;;;;;;2.80;2.33;;;14.10;76.10;;;;;;5025512;28;20221;-66
2021/04/02 00:23:51;;;;;;;2.00;1.77;;;14.00;76.60;;;;;;5028602;28;20457;-66
2021/04/02 00:26:19;;;;;;;1.80;1.70;;;14.00;75.80;;;;;;4999476;28;20228;-68
2021/04/02 00:28:46;;;;;;;4.47;1.67;;;14.00;76.30;;;;;;4975912;28;20247;-65
2021/04/02 00:31:12;;;;;;;6.00;2.00;;;14.00;77.40;;;;;;5003941;28;20483;-65
2021/04/02 00:33:38;;;;;;;3.93;2.00;;;14.00;77.20;;;;;;5005180;28;20464;-66
2021/04/02 00:36:05;;;;;;;2.90;2.13;;;13.80;76.70;;;;;;5024877;28;20224;-66
2021/04/02 00:38:31;;;;;;;3.87;2.60;;;13.70;76.90;;;;;;5018569;28;20240;-67
2021/04/02 00:40:59;;;;;;;3.47;2.33;;;13.70;77.30;;;;;;5025862;28;20975;-67
2021/04/02 00:43:31;;;;;;;2.80;2.13;;;13.60;76.80;;;;;;5035970;28;20454;-66
2021/04/02 00:45:57;;;;;;;4.33;2.37;;;13.60;76.50;;;;;;5011572;28;20459;-66
2021/04/02 00:48:23;;;;;;;7.83;2.43;;;13.50;75.90;;;;;;5014308;28;20482;-66
2021/04/02 00:50:52;;;;;;;4.63;2.27;;;13.50;76.40;;;;;;5006491;28;20720;-67
2021/04/02 00:53:27;;;;;;;3.10;2.40;;;13.60;76.30;;;;;;5014068;28;20303;-67
2021/04/02 00:55:52;;;;;;;3.00;2.27;;;13.60;76.30;;;;;;5023839;28;20477;-66
2021/04/02 00:58:23;;;;;;;2.83;2.10;;;13.60;76.30;;;;;;4996644;28;20984;-66
2021/04/02 01:00:50;;;;;;;2.47;1.87;;;13.50;75.70;;;;;;4992965;28;20213;-65
2021/04/02 01:03:18;;;;;;;4.00;3.20;;;13.50;75.70;;;;;;5009745;28;20519;-66
2021/04/02 01:05:46;;;;;;;4.27;2.90;;;13.40;75.30;;;;;;5010910;28;20582;-67
2021/04/02 01:08:16;;;;;;;2.60;2.40;;;13.30;74.10;;;;;;5014572;28;20475;-68
2021/04/02 01:10:43;;;;;;;2.50;2.30;;;13.10;74.40;;;;;;5013207;28;20439;-69
2021/04/02 01:13:13;;;;;;;2.17;1.97;;;13.00;74.30;;;;;;5023939;28;20454;-69
2021/04/02 01:15:43;;;;;;;5.20;2.13;;;13.00;74.50;;;;;;5005001;28;20821;-69
2021/04/02 01:18:35;;;;;;;2.57;2.00;;;12.90;73.80;;;;;;5011841;28;20469;-69
2021/04/02 01:21:10;;;;;;;4.43;2.57;;;12.70;73.60;;;;;;5020682;28;20458;-69
2021/04/02 01:23:52;;;;;;;3.40;2.33;;;12.60;73.10;;;;;;5025258;28;20486;-69
2021/04/02 01:26:38;;;;;;;2.77;2.40;;;12.40;72.70;;;;;;4999933;28;20816;-69
2021/04/02 01:29:14;;;;;;;3.37;2.07;;;12.30;72.60;;;;;;5044469;28;20452;-68
2021/04/02 01:31:46;;;;;;;2.80;2.37;;;12.20;73.30;;;;;;5008868;28;20452;-68
2021/04/02 01:34:13;;;;;;;3.53;2.00;;;12.10;73.30;;;;;;5028481;28;20454;-67
2021/04/02 01:36:42;;;;;;;2.27;1.90;;;11.90;73.60;;;;;;5008940;28;20463;-68
2021/04/02 01:39:12;;;;;;;2.87;2.50;;;11.80;73.80;;;;;;5017026;28;20485;-69
2021/04/02 01:41:41;;;;;;;3.47;1.97;;;11.70;74.30;;;;;;5021772;28;20471;-68
2021/04/02 01:44:08;;;;;;;3.83;2.70;;;11.70;74.00;;;;;;4990959;28;20459;-69
2021/04/02 01:46:37;;;;;;;5.63;2.90;;;11.60;74.10;;;;;;5006834;28;20537;-69
2021/04/02 01:49:05;;;;;;;2.43;2.07;;;11.50;74.50;;;;;;4991659;28;20462;-69
2021/04/02 01:51:33;;;;;;;3.93;2.27;;;11.50;74.20;;;;;;4991213;28;20475;-70
2021/04/02 01:54:03;;;;;;;4.47;3.30;;;11.30;74.30;;;;;;5009836;28;20451;-70
2021/04/02 01:56:32;;;;;;;7.17;2.60;;;11.20;74.60;;;;;;4992862;28;20466;-68
2021/04/02 01:58:58;;;;;;;4.13;2.53;;;11.30;74.70;;;;;;5017196;28;20522;-68
2021/04/02 02:01:33;;;;;;;4.27;2.67;;;11.20;74.40;;;;;;5010585;28;20455;-70
2021/04/02 02:04:00;;;;;;;2.20;1.67;;;11.20;75.00;;;;;;5029059;28;20470;-69
2021/04/02 02:06:29;;;;;;;6.93;3.03;;;11.00;74.40;;;;;;5010263;28;20463;-68
2021/04/02 02:09:20;;;;;;;4.10;2.83;;;11.00;75.50;;;;;;5010595;28;20459;-68
2021/04/02 02:11:50;;;;;;;7.30;3.00;;;10.90;74.70;;;;;;5028099;28;20442;-67
2021/04/02 02:14:24;;;;;;;3.63;2.30;;;10.90;75.40;;;;;;5011250;28;20451;-69
2021/04/02 02:17:05;;;;;;;7.20;2.40;;;10.70;75.50;;;;;;5010642;28;20442;-68
2021/04/02 02:19:34;;;;;;;4.50;3.20;;;10.70;75.70;;;;;;5015155;28;20796;-69
2021/04/02 02:22:03;;;;;;;9.77;4.87;;;10.50;75.80;;;;;;5034726;28;20458;-68
2021/04/02 02:24:35;;;;;;;5.77;2.90;;;10.50;76.80;;;;;;5005854;28;20473;-70
2021/04/02 02:27:05;;;;;;;3.90;3.13;;;10.70;76.60;;;;;;5024272;28;20516;-67
2021/04/02 02:29:33;;;;;;;3.43;2.47;;;10.70;76.40;;;;;;5001437;28;20452;-69
2021/04/02 02:32:00;;;;;;;4.20;2.67;;;10.80;76.80;;;;;;5009643;28;20514;-68
2021/04/02 02:34:31;;;;;;;4.93;3.23;;;10.80;76.30;;;;;;5019049;28;20460;-67
2021/04/02 02:37:01;;;;;;;4.97;3.17;;;10.70;76.20;;;;;;5011206;28;20456;-69
2021/04/02 02:39:32;;;;;;;3.57;3.10;;;10.70;76.50;;;;;;5011850;28;20456;-68
2021/04/02 02:42:08;;;;;;;4.13;2.53;;;10.70;76.50;;;;;;5015301;28;20483;-67
2021/04/02 02:44:35;;;;;;;3.90;3.17;;;10.60;76.80;;;;;;5033391;28;20463;-69
2021/04/02 02:47:07;;;;;;;2.30;1.70;;;10.50;76.90;;;;;;5008951;28;20572;-68
2021/04/02 02:49:38;;;;;;;9.03;3.17;;;10.30;76.90;;;;;;4998858;28;20459;-70
2021/04/02 02:52:05;;;;;;;5.63;4.00;;;10.20;77.20;;;;;;5023897;28;21048;-71
2021/04/02 02:54:34;;;;;;;3.97;2.90;;;10.10;77.60;;;;;;4990818;28;20501;-68
2021/04/02 02:57:02;;;;;;;4.43;3.23;;;10.10;78.00;;;;;;4995735;28;20464;-68
2021/04/02 02:59:31;;;;;;;4.67;3.47;;;10.00;78.00;;;;;;5008415;28;20971;-69
2021/04/02 03:01:59;;;;;;;4.63;3.40;;;10.10;78.30;;;;;;5017705;28;20462;-68
2021/04/02 03:04:28;;;;;;;5.67;3.40;;;10.00;78.30;;;;;;5020008;28;20481;-67
2021/04/02 03:06:57;;;;;;;4.40;3.67;;;10.00;78.30;;;;;;5034489;28;20473;-67
2021/04/02 03:09:26;;;;;;;6.93;3.93;;;10.00;78.30;;;;;;5002680;28;20886;-68
2021/04/02 03:11:53;;;;;;;4.63;3.90;;;10.00;78.50;;;;;;5001532;28;20547;-68
2021/04/02 03:14:21;;;;;;;6.40;3.87;;;10.00;78.40;;;;;;5018713;28;20478;-69
2021/04/02 03:16:50;;;;;;;5.37;2.93;;;10.00;78.40;;;;;;5000268;28;20454;-68
2021/04/02 03:19:20;;;;;;;7.40;4.10;;;9.90;79.90;;;;;;5003012;28;20453;-68
2021/04/02 03:21:53;;;;;;;4.30;3.90;;;9.80;80.00;;;;;;5006121;28;20523;-67
2021/04/02 03:24:31;;;;;;;4.10;3.53;;;9.90;80.20;;;;;;5021756;28;20564;-68
2021/04/02 03:27:00;;;;;;;4.37;3.33;;;9.80;79.90;;;;;;4989040;28;20518;-68
2021/04/02 03:29:28;;;;;;;2.10;1.97;;;9.80;80.20;;;;;;4987095;28;20462;-67
2021/04/02 03:32:09;;;;;;;3.97;3.50;;;9.80;80.20;;;;;;5004145;28;20456;-68
2021/04/02 03:34:37;;;;;;;3.43;2.90;;;9.80;80.20;;;;;;5039820;28;20570;-68
2021/04/02 03:37:06;;;;;;;4.33;2.73;;;9.70;80.50;;;;;;4998708;28;20485;-68
2021/04/02 03:39:33;;;;;;;4.27;3.57;;;9.70;80.50;;;;;;5015490;28;20455;-69
2021/04/02 03:42:24;;;;;;;8.57;3.00;;;9.70;80.10;;;;;;5016911;28;20454;-68
2021/04/02 03:44:51;;;;;;;4.63;3.10;;;9.80;80.20;;;;;;5027602;28;20439;-68
2021/04/02 03:47:20;;;;;;;4.40;2.40;;;9.80;79.90;;;;;;4996147;28;20458;-69
2021/04/02 03:49:51;;;;;;;3.03;2.40;;;9.70;80.00;;;;;;5018357;28;20438;-67
2021/04/02 03:52:27;;;;;;;4.33;3.70;;;9.70;80.00;;;;;;5022187;28;20454;-68
2021/04/02 03:54:55;;;;;;;4.37;3.20;;;9.60;80.20;;;;;;5022494;28;20446;-68
2021/04/02 03:57:24;;;;;;;5.23;2.57;;;9.60;80.10;;;;;;4992500;28;20494;-68
2021/04/02 03:59:53;;;;;;;4.50;3.03;;;9.50;80.00;;;;;;5038076;28;20456;-69
2021/04/02 04:02:20;;;;;;;2.30;1.97;;;9.50;80.00;;;;;;5003012;28;20447;-68
2021/04/02 04:04:50;;;;;;;3.20;2.80;;;9.50;80.20;;;;;;5029029;28;20461;-69
2021/04/02 04:07:17;;;;;;;4.10;3.20;;;9.50;80.30;;;;;;5006913;28;20456;-68
2021/04/02 04:09:48;;;;;;;6.23;3.83;;;9.40;79.90;;;;;;4996245;28;20460;-68
2021/04/02 04:12:19;;;;;;;4.30;3.47;;;9.30;80.20;;;;;;5020679;28;20471;-68
2021/04/02 04:14:49;;;;;;;4.10;2.73;;;9.40;80.10;;;;;;5031261;28;20450;-68
2021/04/02 04:17:21;;;;;;;5.20;2.90;;;9.40;79.90;;;;;;5010338;28;20538;-71
2021/04/02 04:19:52;;;;;;;6.00;3.37;;;9.30;79.80;;;;;;5005312;28;20462;-68
2021/04/02 04:22:24;;;;;;;3.70;2.80;;;9.30;80.10;;;;;;5033680;28;20542;-66
2021/04/02 04:24:53;;;;;;;3.80;2.30;;;9.30;80.10;;;;;;4996258;28;20813;-68
2021/04/02 04:27:19;;;;;;;4.23;3.03;;;9.30;79.90;;;;;;4992270;28;20822;-67
2021/04/02 04:29:50;;;;;;;4.77;3.13;;;9.20;79.80;;;;;;4996449;28;20455;-68
2021/04/02 04:32:19;;;;;;;3.50;3.20;;;9.20;79.90;;;;;;5030409;28;20446;-68
2021/04/02 04:34:48;;;;;;;6.27;3.00;;;9.10;80.10;;;;;;5032129;28;20449;-68
2021/04/02 04:37:16;;;;;;;4.77;3.03;;;9.10;80.00;;;;;;5030395;28;20439;-69
2021/04/02 04:39:46;;;;;;;6.20;3.40;;;9.10;80.50;;;;;;5020937;28;20462;-68
2021/04/02 04:42:13;;;;;;;4.40;2.33;;;9.10;80.40;;;;;;5013726;28;20463;-68
2021/04/02 04:44:41;;;;;;;3.30;2.70;;;9.00;79.80;;;;;;5005411;28;21050;-68
2021/04/02 04:47:07;;;;;;;3.70;3.30;;;9.10;80.20;;;;;;5012335;28;20842;-67
2021/04/02 04:49:34;;;;;;;3.53;2.50;;;9.00;80.00;;;;;;5034985;28;20496;-68
2021/04/02 04:52:01;;;;;;;5.60;3.60;;;8.90;80.10;;;;;;5012275;28;20463;-68
2021/04/02 04:54:29;;;;;;;8.03;3.10;;;8.90;80.20;;;;;;5039207;28;20471;-68
2021/04/02 04:56:58;;;;;;;4.03;3.20;;;8.90;80.20;;;;;;5009425;28;20890;-68
2021/04/02 04:59:24;;;;;;;7.00;3.50;;;8.90;80.50;;;;;;5012839;28;20452;-68
2021/04/02 05:01:53;;;;;;;3.50;3.20;;;8.80;80.10;;;;;;5016701;28;20587;-68
2021/04/02 05:04:21;;;;;;;4.13;2.93;;;8.90;80.20;;;;;;5030985;28;20554;-69
2021/04/02 05:06:50;;;;;;;6.47;3.47;;;8.90;80.10;;;;;;5015600;28;20470;-70
2021/04/02 05:09:18;;;;;;;4.30;3.57;;;9.00;79.90;;;;;;5034541;28;20555;-68
2021/04/02 05:11:45;;;;;;;3.03;2.50;;;8.90;80.20;;;;;;5009600;28;20463;-68
2021/04/02 05:14:13;;;;;;;4.60;3.07;;;8.80;80.30;;;;;;5000513;28;20461;-68
2021/04/02 05:16:41;;;;;;;3.70;2.50;;;8.70;80.60;;;;;;5019852;28;20469;-69
2021/04/02 05:19:09;;;;;;;5.33;3.70;;;8.70;80.90;;;;;;5042567;28;20465;-67
2021/04/02 05:21:37;;;;;;;5.90;3.73;;;8.70;81.30;;;;;;5006104;28;20459;-67
2021/04/02 05:24:03;;;;;;;5.10;4.13;;;8.70;81.20;;;;;;5004564;28;21010;-67
2021/04/02 05:26:29;;;;;;;5.23;3.00;;;8.70;81.50;;;;;;5025229;28;20465;-69
2021/04/02 05:28:56;;;;;;;3.70;2.97;;;8.70;81.70;;;;;;5020766;28;20503;-68
2021/04/02 05:31:21;;;;;;;4.97;3.30;;;8.60;82.00;;;;;;5005603;28;20680;-69
2021/04/02 05:33:47;;;;;;;5.33;2.83;;;8.70;82.00;;;;;;5020949;28;20455;-67
2021/04/02 05:36:12;;;;;;;6.80;3.77;;;8.60;82.00;;;;;;4997032;28;20225;-69
2021/04/02 05:38:38;;;;;;;5.40;3.43;;;8.50;82.60;;;;;;5004432;28;20208;-69
2021/04/02 05:41:09;;;;;;;4.50;3.03;;;8.60;82.50;;;;;;5021156;28;20219;-67
2021/04/02 05:43:45;;;;;;;3.87;3.47;;;8.60;82.80;;;;;;5004822;28;20215;-68
2021/04/02 05:46:13;;;;;;;6.53;3.73;;;8.70;83.70;;;;;;5028356;28;20957;-67
2021/04/02 05:48:40;;;;;;;5.10;3.70;;;8.70;82.40;;;;;;5013188;28;20447;-68
2021/04/02 05:51:07;;;;;;;5.57;3.00;;;8.70;82.90;;;;;;5034691;28;20541;-68
2021/04/02 05:53:33;;;;;;;4.70;3.47;;;8.70;82.60;;;;;;4995468;28;20547;-68
2021/04/02 05:56:03;;;;;;;6.20;4.27;;;8.70;82.70;;;;;;4997575;28;20464;-68
2021/04/02 05:58:29;;;;;;;6.50;4.33;;;8.70;83.20;;;;;;5034021;28;20459;-67
2021/04/02 06:00:56;;;;;;;4.23;3.27;;;8.60;83.20;;;;;;5005735;28;20455;-68
2021/04/02 06:03:22;;;;;;;6.00;3.63;;;8.70;83.70;;;;;;4989134;28;20471;-67
2021/04/02 06:05:48;;;;;;;4.70;3.17;;;8.70;83.30;;;;;;5030257;28;20976;-67
2021/04/02 06:08:15;;;;;;;3.83;3.10;;;8.70;83.70;;;;;;4996188;28;20615;-68
2021/04/02 06:10:41;;;;;;;4.07;3.10;;;8.70;83.50;;;;;;5016816;28;20469;-68
2021/04/02 06:13:06;;;;;;;6.33;3.77;;;8.70;83.90;;;;;;5015252;28;20550;-68
2021/04/02 06:15:45;;;;;;;3.90;2.93;;;8.60;83.80;;;;;;5009509;28;20539;-67
2021/04/02 06:18:12;;;;;;;4.67;3.60;;;8.70;84.20;;;;;;5030194;28;20673;-68
2021/04/02 06:20:50;;;;;;;3.20;2.80;;;8.60;84.20;;;;;;5010389;28;20506;-67
2021/04/02 06:23:25;;;;;;;4.40;2.93;;;8.70;84.20;;;;;;5014469;28;20456;-69
2021/04/02 06:25:56;;;;;;;4.10;3.37;;;8.70;84.20;;;;;;5031282;28;20981;-68
2021/04/02 06:28:29;;;;;;;6.20;3.70;;;8.80;84.30;;;;;;5031356;28;20526;-67
2021/04/02 06:31:10;;;;;;;6.00;3.80;;;8.80;84.40;;;;;;5006077;28;20542;-67
2021/04/02 06:33:41;;;;;;;3.10;2.90;;;8.80;84.70;;;;;;5029406;28;20455;-68
2021/04/02 06:36:27;;;;;;;3.57;2.40;;;8.80;84.80;;;;;;5057878;28;20459;-67
2021/04/02 06:39:02;;;;;;;3.03;2.67;;;8.90;84.60;;;;;;5028970;28;20504;-68
2021/04/02 06:41:29;;;;;;;4.10;3.60;;;8.90;84.90;;;;;;4994818;28;20485;-68
2021/04/02 06:43:59;;;;;;;5.77;3.53;;;8.90;84.90;;;;;;5012986;28;20827;-68
2021/04/02 06:46:26;;;;;;;4.57;3.20;;;8.90;85.10;;;;;;4995855;28;20557;-68
2021/04/02 06:48:53;;;;;;;5.50;3.63;;;8.90;84.60;;;;;;5012819;28;20456;-69
2021/04/02 06:51:21;;;;;;;4.80;3.50;;;9.00;84.50;;;;;;5000637;28;20458;-68
2021/04/02 06:53:49;;;;;;;5.83;3.00;;;9.00;84.80;;;;;;5009194;28;20442;-68
2021/04/02 06:56:16;;;;;;;3.43;3.10;;;9.10;84.30;;;;;;4988901;28;20460;-67
2021/04/02 06:58:43;;;;;;;3.30;2.80;;;9.10;84.10;;;;;;5033866;28;20456;-68
2021/04/02 07:01:12;;;;;;;6.20;3.93;;;9.20;83.80;;;;;;5036326;28;21005;-67
2021/04/02 07:03:38;;;;;;;5.53;4.00;;;9.20;83.80;;;;;;4995912;28;20488;-68
2021/04/02 07:06:05;;;;;;;6.67;3.87;;;9.20;84.00;;;;;;5020008;28;20906;-68
2021/04/02 07:08:33;;;;;;;5.77;3.77;;;9.20;83.80;;;;;;5022128;28;20213;-70
2021/04/02 07:10:59;;;;;;;5.07;4.00;;;9.20;83.80;;;;;;5039240;28;20458;-68
2021/04/02 07:13:26;;;;;;;4.97;3.07;;;9.20;84.20;;;;;;5025526;28;20459;-67
2021/04/02 07:15:53;;;;;;;6.87;4.33;;;9.20;83.80;;;;;;5037163;28;20467;-68
2021/04/02 07:18:19;;;;;;;5.57;3.50;;;9.20;84.30;;;;;;5012699;28;20554;-69
2021/04/02 07:20:48;;;;;;;4.93;3.27;;;9.20;84.40;;;;;;5013450;28;20470;-67
2021/04/02 07:23:14;;;;;;;5.30;3.43;;;9.10;84.70;;;;;;5029512;28;20860;-67
2021/04/02 07:25:40;;;;;;;6.30;4.07;;;9.10;84.70;;;;;;5015133;28;20473;-67
2021/04/02 07:28:06;;;;;;;7.77;3.90;;;9.10;85.00;;;;;;5006731;28;20451;-68
2021/04/02 07:30:33;;;;;;;4.07;3.27;;;9.10;85.20;;;;;;4990860;28;20213;-67
2021/04/02 07:33:02;;;;;;;3.33;2.70;;;9.10;85.40;;;;;;5010475;28;20450;-70
2021/04/02 07:35:28;;;;;;;5.63;3.23;;;9.10;85.20;;;;;;5037446;28;20979;-67
2021/04/02 07:37:56;;;;;;;4.83;3.40;;;9.10;85.50;;;;;;5004936;28;20487;-68
2021/04/02 07:40:29;;;;;;;3.43;3.13;;;9.00;85.60;;;;;;5024522;28;20715;-67
2021/04/02 07:42:57;;;;;;;5.17;3.70;;;9.00;85.70;;;;;;5011824;28;20464;-68
2021/04/02 07:45:26;;;;;;;4.73;3.70;;;9.00;85.70;;;;;;5003523;28;20534;-68
2021/04/02 07:48:09;;;;;;;5.10;3.60;;;9.00;85.70;;;;;;5023191;28;20601;-68
2021/04/02 07:50:57;;;;;;;4.50;3.10;;;9.00;85.80;;;;;;5020746;28;21009;-69
2021/04/02 07:53:25;;;;;;;4.70;2.93;;;9.00;85.90;;;;;;5019375;28;20475;-68
2021/04/02 07:56:01;;;;;;;6.27;3.53;;;9.00;86.80;;;;;;5022875;28;20447;-67
2021/04/02 07:58:29;;;;;;;4.00;3.60;;;9.10;86.10;;;;;;5031300;28;20481;-67
2021/04/02 08:00:58;;;;;;;9.73;4.07;;;9.10;85.90;;;;;;5017541;28;20443;-67
2021/04/02 08:03:30;;;;;;;7.10;3.50;;;9.20;86.10;;;;;;5032870;28;20509;-67
2021/04/02 08:05:59;;;;;;;5.70;2.87;;;9.20;86.30;;;;;;5013193;28;20494;-67
2021/04/02 08:08:26;;;;;;;9.13;5.40;;;9.10;86.10;;;;;;5018268;28;20466;-69
2021/04/02 08:11:07;;;;;;;10.53;8.20;;;9.10;86.10;;;;;;5006395;28;20871;-69
2021/04/02 08:14:09;;;;;;;9.20;8.20;;;9.10;86.40;;;;;;4993612;28;20600;-68
2021/04/02 08:16:40;;;;;;;5.97;4.17;;;9.20;86.70;;;;;;5006035;28;20461;-68
2021/04/02 08:19:17;;;;;;;4.03;3.50;;;9.20;86.40;;;;;;5008181;28;20686;-67
2021/04/02 08:21:44;;;;;;;7.00;3.97;;;9.20;86.40;;;;;;5025055;28;20483;-67
2021/04/02 08:24:12;;;;;;;5.23;3.67;;;9.20;86.50;;;;;;5021803;28;20493;-67
2021/04/02 08:26:40;;;;;;;6.37;4.47;;;9.20;86.30;;;;;;4995955;28;20988;-67
2021/04/02 08:29:08;;;;;;;7.30;3.97;;;9.30;86.60;;;;;;5049590;28;20481;-68
2021/04/02 08:31:35;;;;;;;5.27;3.83;;;9.40;86.70;;;;;;5015400;28;20474;-68
2021/04/02 08:34:01;;;;;;;6.33;4.37;;;9.40;86.60;;;;;;5005328;28;20457;-67
2021/04/02 08:36:28;;;;;;;5.17;4.07;;;9.40;86.60;;;;;;4996857;28;20547;-67
2021/04/02 08:38:55;;;;;;;6.07;3.83;;;9.40;86.50;;;;;;5016475;28;20479;-67
2021/04/02 08:41:32;;;;;;;4.30;3.27;;;9.50;86.50;;;;;;5028991;28;20475;-68
2021/04/02 08:43:59;;;;;;;5.27;3.57;;;9.50;86.50;;;;;;5008467;28;20534;-68
2021/04/02 08:46:38;;;;;;;5.40;3.93;;;9.40;86.10;;;;;;5037721;28;20489;-68
2021/04/02 08:49:05;;;;;;;6.50;4.50;;;9.50;86.70;;;;;;5011984;28;20455;-67
2021/04/02 08:51:31;;;;;;;5.77;3.77;;;9.50;86.40;;;;;;5011334;28;20510;-68
2021/04/02 08:53:56;;;;;;;6.60;4.17;;;9.50;86.30;;;;;;5002284;28;20859;-68
2021/04/02 08:56:23;;;;;;;6.00;3.60;;;9.60;86.40;;;;;;5003351;28;20221;-68
2021/04/02 08:58:50;;;;;;;4.50;3.73;;;9.60;86.20;;;;;;5006628;28;20219;-68
2021/04/02 09:01:17;;;;;;;4.80;3.50;;;9.60;86.00;;;;;;5045501;28;20454;-67
2021/04/02 09:03:44;;;;;;;5.27;3.83;;;9.60;86.30;;;;;;5004494;28;20467;-67
2021/04/02 09:06:10;;;;;;;5.33;3.63;;;9.60;86.30;;;;;;5007957;28;20488;-67
2021/04/02 09:08:37;;;;;;;7.40;4.87;;;9.70;85.90;;;;;;5029692;28;20463;-68
2021/04/02 09:11:08;;;;;;;4.60;3.77;;;9.70;85.90;;;;;;5021579;28;21291;-67
2021/04/02 09:13:42;;;;;;;5.10;4.00;;;9.70;85.70;;;;;;5016275;28;20980;-67
2021/04/02 09:16:14;;;;;;;7.03;4.17;;;9.80;86.10;;;;;;5008243;28;20490;-68
2021/04/02 09:18:50;;;;;;;4.93;4.10;;;9.80;86.00;;;;;;5043175;28;20467;-67
2021/04/02 09:21:17;;;;;;;7.73;5.10;;;9.80;85.40;;;;;;4996230;28;20456;-68
2021/04/02 09:23:42;;;;;;;9.33;5.70;;;9.80;85.50;;;;;;5007579;28;20490;-67
2021/04/02 09:26:09;;;;;;;7.50;4.13;;;9.70;85.50;;;;;;5002643;28;20507;-67
2021/04/02 09:28:37;;;;;;;6.53;4.80;;;9.70;85.50;;;;;;5010342;28;20228;-68
2021/04/02 09:31:19;;;;;;;7.80;5.00;;;9.70;85.90;;;;;;5010515;28;20458;-67
2021/04/02 09:33:56;;;;;;;6.20;4.37;;;9.70;85.50;;;;;;5008201;28;20455;-69
2021/04/02 09:36:25;;;;;;;7.70;4.50;;;9.60;85.40;;;;;;5016207;28;20513;-68
2021/04/02 09:39:01;;;;;;;12.90;4.87;;;9.70;85.60;;;;;;5004882;28;20447;-67
2021/04/02 09:41:27;;;;;;;8.07;5.03;;;9.70;86.10;;;;;;5029181;28;20485;-67
2021/04/02 09:43:53;;;;;;;5.67;4.40;;;9.80;85.90;;;;;;5023730;28;20455;-67
2021/04/02 09:46:38;;;;;;;8.60;4.90;;;9.80;85.90;;;;;;4983981;28;20221;-67
2021/04/02 09:49:11;;;;;;;5.33;4.50;;;9.80;85.50;;;;;;5021531;28;20504;-68
2021/04/02 09:51:43;;;;;;;6.30;4.43;;;9.80;85.30;;;;;;5019572;28;20463;-68
2021/04/02 09:54:09;;;;;;;6.50;4.33;;;9.70;85.00;;;;;;5011403;28;20530;-68
2021/04/02 09:56:36;;;;;;;5.20;3.40;;;9.70;85.50;;;;;;4991007;28;20945;-67
2021/04/02 09:59:03;;;;;;;6.03;4.40;;;9.70;86.00;;;;;;5007109;28;20463;-67
2021/04/02 10:01:32;;;;;;;8.90;5.03;;;9.70;85.80;;;;;;4973632;28;20535;-68
2021/04/02 10:03:58;;;;;;;5.60;3.73;;;9.80;85.60;;;;;;5025410;28;20463;-67
2021/04/02 10:06:24;;;;;;;7.77;4.67;;;9.70;85.60;;;;;;5009858;28;20483;-68
2021/04/02 10:08:49;;;;;;;7.20;4.27;;;9.70;85.40;;;;;;4995605;28;20538;-68
2021/04/02 10:11:15;;;;;;;8.77;4.60;;;9.80;85.70;;;;;;5007649;28;20729;-68
2021/04/02 10:13:41;;;;;;;7.40;4.67;;;9.80;85.60;;;;;;5008135;28;20229;-69
2021/04/02 10:16:07;;;;;;;5.87;5.00;;;9.80;85.60;;;;;;5006274;28;20225;-69
2021/04/02 10:18:34;;;;;;;9.27;6.57;;;9.90;85.60;;;;;;5008791;28;20714;-68
2021/04/02 10:21:00;;;;;;;10.50;5.43;;;9.90;85.00;;;;;;4992559;28;20502;-67
2021/04/02 10:23:25;;;;;;;6.30;4.77;;;9.90;85.30;;;;;;5011225;28;20463;-68
2021/04/02 10:25:51;;;;;;;4.80;2.97;;;9.90;85.20;;;;;;5025348;28;20231;-68
2021/04/02 10:28:17;;;;;;;8.00;4.37;;;9.90;85.00;;;;;;5013185;28;20226;-67
2021/04/02 10:30:43;;;;;;;7.10;4.23;;;9.90;85.40;;;;;;4999078;28;20225;-67
2021/04/02 10:33:08;;;;;;;6.83;4.80;;;9.90;85.10;;;;;;5009485;28;20212;-68
2021/04/02 10:35:35;;;;;;;6.70;4.30;;;9.90;85.40;;;;;;5012808;28;20968;-68
2021/04/02 10:38:03;;;;;;;9.30;5.10;;;10.00;83.70;;;;;;5012201;28;20311;-68
2021/04/02 10:40:28;;;;;;;6.50;4.00;;;10.00;83.20;;;;;;5010145;28;20464;-68
2021/04/02 10:42:54;;;;;;;7.77;4.57;;;10.10;83.60;;;;;;5011706;28;20454;-69
2021/04/02 10:45:20;;;;;;;5.90;4.50;;;10.00;83.60;;;;;;5025998;28;20214;-69
2021/04/02 10:47:45;;;;;;;8.03;4.70;;;10.10;83.90;;;;;;5034798;28;20220;-68
2021/04/02 10:50:11;;;;;;;6.90;4.93;;;10.20;83.80;;;;;;5024735;28;20213;-67
2021/04/02 10:52:37;;;;;;;7.80;4.60;;;10.30;84.10;;;;;;4995054;28;20221;-69
2021/04/02 10:55:05;;;;;;;6.10;4.53;;;10.30;83.20;;;;;;5013200;28;20462;-68
2021/04/02 10:57:30;;;;;;;6.90;3.77;;;10.30;83.90;;;;;;5022972;28;20217;-68
2021/04/02 10:59:56;;;;;;;7.73;3.80;;;10.40;83.40;;;;;;5012027;28;20456;-68
2021/04/02 11:02:22;;;;;;;6.40;4.37;;;10.40;83.40;;;;;;5026644;28;20217;-69
2021/04/02 11:04:47;;;;;;;6.50;4.80;;;10.40;83.80;;;;;;5011857;28;20231;-68
2021/04/02 11:07:13;;;;;;;4.23;3.70;;;10.40;83.30;;;;;;5023789;28;20233;-68
2021/04/02 11:09:38;;;;;;;7.03;4.60;;;10.50;83.30;;;;;;5006042;28;20225;-68
2021/04/02 11:12:05;;;;;;;4.40;3.60;;;10.50;83.50;;;;;;5002693;28;20217;-67
2021/04/02 11:14:30;;;;;;;5.63;3.87;;;10.50;82.60;;;;;;5000633;28;20225;-67
2021/04/02 11:16:57;;;;;;;7.30;4.40;;;10.50;82.30;;;;;;4997285;28;20549;-67
2021/04/02 11:19:23;;;;;;;5.57;3.90;;;10.50;82.30;;;;;;4995045;28;20300;-67
2021/04/02 11:21:50;;;;;;;6.57;4.47;;;10.60;82.30;;;;;;5018220;28;21076;-67
2021/04/02 11:24:15;;;;;;;7.10;4.17;;;10.70;81.20;;;;;;5003866;28;20460;-69
2021/04/02 11:26:42;;;;;;;6.20;4.67;;;10.70;82.10;;;;;;4992673;28;20544;-68
2021/04/02 11:29:07;;;;;;;7.33;4.10;;;10.80;82.90;;;;;;5003365;28;20255;-67
2021/04/02 11:31:33;;;;;;;5.30;4.10;;;10.90;82.00;;;;;;5021708;28;20984;-68
2021/04/02 11:33:59;;;;;;;4.97;2.73;;;10.90;82.00;;;;;;4988854;28;20272;-67
2021/04/02 11:36:25;;;;;;;5.73;4.17;;;10.90;81.60;;;;;;4994750;28;20217;-67
2021/04/02 11:38:51;;;;;;;4.63;3.90;;;11.00;82.00;;;;;;5007436;28;20225;-68
2021/04/02 11:41:16;;;;;;;5.50;3.57;;;11.00;82.30;;;;;;4990444;28;20282;-68
2021/04/02 11:43:42;;;;;;;6.63;4.60;;;11.10;82.40;;;;;;5013434;28;20666;-68
2021/04/02 11:46:08;;;;;;;4.83;3.43;;;11.10;81.50;;;;;;4987089;28;20783;-68
2021/04/02 11:48:34;;;;;;;5.73;4.40;;;11.10;81.20;;;;;;5004491;28;20233;-68
2021/04/02 11:51:00;;;;;;;14.17;9.20;;;11.10;81.70;;;;;;4986188;28;20461;-68
2021/04/02 11:53:26;;;;;;;9.60;7.77;;;11.20;81.30;;;;;;4999268;28;20226;-71
2021/04/02 11:55:52;;;;;;;6.80;6.10;;;11.20;82.00;;;;;;4994101;28;20465;-68
2021/04/02 11:58:17;;;;;;;5.70;4.80;;;11.30;81.80;;;;;;4998956;28;20219;-68
2021/04/02 12:00:43;;;;;;;5.43;4.57;;;11.40;80.90;;;;;;5015665;28;20689;-68
2021/04/02 12:03:09;;;;;;;5.90;4.30;;;11.40;81.00;;;;;;5009371;28;20212;-68
2021/04/02 12:05:35;;;;;;;5.20;4.03;;;11.50;80.90;;;;;;5004969;28;20229;-70
2021/04/02 12:08:00;;;;;;;4.37;3.97;;;11.60;81.80;;;;;;5023570;28;20213;-69
2021/04/02 12:10:26;;;;;;;5.10;4.23;;;11.70;81.70;;;;;;5011339;28;20213;-68
2021/04/02 12:12:52;;;;;;;5.80;3.70;;;11.70;81.00;;;;;;5011520;28;20552;-67
2021/04/02 12:15:18;;;;;;;4.13;3.70;;;11.80;80.50;;;;;;5010051;28;20228;-70
2021/04/02 12:17:44;;;;;;;4.97;3.47;;;11.80;80.60;;;;;;5003449;28;20208;-70
2021/04/02 12:20:15;;;;;;;4.20;3.60;;;12.00;81.10;;;;;;5013006;28;20455;-70
2021/04/02 12:22:42;;;;;;;4.33;2.20;;;12.10;81.00;;;;;;5021651;28;20259;-66
2021/04/02 12:25:10;;;;;;;9.40;5.60;;;12.10;78.20;;;;;;5014935;28;20531;-67
2021/04/02 12:27:37;;;;;;;6.43;4.00;;;12.00;78.30;;;;;;5003959;28;20447;-66
2021/04/02 12:30:07;;;;;;;5.40;4.30;;;11.90;77.20;;;;;;5039815;28;20828;-70
2021/04/02 12:32:33;;;;;;;15.97;9.67;;;12.00;78.80;;;;;;5034916;28;20443;-67
2021/04/02 12:35:00;;;;;;;9.20;5.47;;;12.10;78.80;;;;;;5016235;28;20537;-67
2021/04/02 12:37:26;;;;;;;4.63;3.70;;;12.20;79.70;;;;;;5014400;28;20220;-67
2021/04/02 12:39:51;;;;;;;4.93;3.33;;;12.20;78.00;;;;;;5016349;28;20440;-68
2021/04/02 12:42:17;;;;;;;3.63;2.87;;;12.20;77.90;;;;;;5011693;28;20216;-67
2021/04/02 12:44:43;;;;;;;5.00;3.70;;;12.30;77.20;;;;;;5005260;28;20689;-67
2021/04/02 12:47:08;;;;;;;3.30;3.00;;;12.30;77.40;;;;;;4995552;28;20315;-68
2021/04/02 12:49:34;;;;;;;4.70;3.13;;;12.30;77.20;;;;;;5014446;28;20220;-68
2021/04/02 12:52:00;;;;;;;4.13;3.50;;;12.40;76.60;;;;;;4995433;28;20291;-68
2021/04/02 12:54:26;;;;;;;5.30;3.83;;;12.30;76.30;;;;;;5020800;28;20286;-68
2021/04/02 12:56:51;;;;;;;4.60;3.40;;;12.30;76.80;;;;;;5004572;28;20221;-68
2021/04/02 12:59:17;;;;;;;3.30;3.00;;;12.50;78.30;;;;;;5011688;28;20220;-68
2021/04/02 13:01:43;;;;;;;5.20;3.70;;;12.70;77.90;;;;;;5005538;28;20307;-68